createdAt,value
2019-02-10T00:02:00.542Z,14.03
2019-02-10T00:04:29.902Z,11.37
2019-02-10T00:06:59.234Z,15.60
2019-02-10T00:09:28.606Z,24.40
2019-02-10T00:11:58.049Z,14.27
2019-02-10T00:14:27.420Z,16.27
2019-02-10T00:16:56.765Z,15.80
2019-02-10T00:19:26.172Z,18.97
2019-02-10T00:21:55.660Z,9.77
2019-02-10T00:24:25.101Z,10.63
2019-02-10T00:26:54.564Z,16.50
2019-02-10T00:29:23.990Z,11.20
2019-02-10T00:31:53.441Z,12.57
2019-02-10T00:34:22.817Z,19.40
2019-02-10T00:36:52.202Z,12.07
2019-02-10T00:39:21.597Z,14.23
2019-02-10T00:41:50.966Z,12.57
2019-02-10T00:44:20.301Z,28.90
2019-02-10T00:46:49.724Z,16.33
2019-02-10T00:49:19.118Z,20.53
2019-02-10T00:51:48.493Z,18.67
2019-02-10T00:54:17.844Z,12.23
2019-02-10T00:56:47.239Z,19.57
2019-02-10T00:59:16.698Z,7.57
2019-02-10T01:01:46.101Z,12.00
2019-02-10T01:04:15.511Z,14.93
2019-02-10T01:06:44.859Z,13.80
2019-02-10T01:09:14.233Z,11.07
2019-02-10T01:11:43.556Z,9.97
2019-02-10T01:14:12.930Z,15.10
2019-02-10T01:16:42.329Z,20.57
2019-02-10T01:19:12.221Z,15.00
2019-02-10T01:21:43.227Z,22.77
2019-02-10T01:24:12.695Z,7.80
2019-02-10T01:26:42.103Z,12.07
2019-02-10T01:29:11.473Z,13.23
2019-02-10T01:31:40.921Z,9.80
2019-02-10T01:34:11.080Z,13.77
2019-02-10T01:36:40.425Z,12.20
2019-02-10T01:39:19.889Z,14.13
2019-02-10T01:41:49.323Z,11.33
2019-02-10T01:44:19.199Z,26.87
2019-02-10T01:46:48.574Z,16.60
2019-02-10T01:49:17.961Z,19.60
2019-02-10T01:51:47.327Z,17.13
2019-02-10T01:54:16.784Z,8.90
2019-02-10T01:56:46.196Z,21.73
2019-02-10T01:59:15.589Z,11.60
2019-02-10T02:01:44.928Z,12.30
2019-02-10T02:04:14.408Z,12.60
2019-02-10T02:06:43.809Z,17.17
2019-02-10T02:09:15.085Z,11.07
2019-02-10T02:11:44.434Z,12.63
2019-02-10T02:14:13.805Z,19.63
2019-02-10T02:16:43.140Z,13.03
2019-02-10T02:19:13.105Z,12.93
2019-02-10T02:21:42.499Z,14.30
2019-02-10T02:24:11.909Z,20.30
2019-02-10T02:26:41.251Z,12.13
2019-02-10T02:29:10.632Z,13.80
2019-02-10T02:31:39.971Z,9.80
2019-02-10T02:34:09.414Z,17.57
2019-02-10T02:36:45.098Z,12.27
2019-02-10T02:39:14.607Z,9.27
2019-02-10T02:41:43.950Z,12.83
2019-02-10T02:44:13.391Z,12.53
2019-02-10T02:46:42.855Z,18.27
2019-02-10T02:49:12.612Z,12.33
2019-02-10T02:51:42.013Z,15.53
2019-02-10T02:54:11.449Z,12.83
2019-02-10T02:56:40.877Z,13.23
2019-02-10T02:59:10.333Z,15.03
2019-02-10T03:01:39.734Z,10.97
2019-02-10T03:04:09.093Z,8.63
2019-02-10T03:06:48.223Z,13.03
2019-02-10T03:09:17.784Z,13.80
2019-02-10T03:11:47.121Z,11.57
2019-02-10T03:14:16.593Z,9.20
2019-02-10T03:16:46.008Z,8.83
2019-02-10T03:19:15.455Z,5.40
2019-02-10T03:21:44.915Z,22.87
2019-02-10T03:24:14.415Z,8.77
2019-02-10T03:26:43.816Z,11.13
2019-02-10T03:29:13.237Z,8.40
2019-02-10T03:31:42.650Z,10.70
2019-02-10T03:34:12.081Z,11.30
2019-02-10T03:36:41.527Z,10.90
2019-02-10T03:39:10.986Z,11.00
2019-02-10T03:41:40.405Z,14.07
2019-02-10T03:44:09.830Z,10.97
2019-02-10T03:46:39.142Z,16.50
2019-02-10T03:49:08.531Z,9.20
2019-02-10T03:51:37.857Z,15.27
2019-02-10T03:54:07.218Z,13.07
2019-02-10T03:56:36.597Z,9.47
2019-02-10T03:59:05.970Z,10.73
2019-02-10T04:01:35.353Z,18.63
2019-02-10T04:04:05.042Z,13.53
2019-02-10T04:06:34.430Z,18.90
2019-02-10T04:09:05.262Z,8.40
2019-02-10T04:11:34.648Z,7.47
2019-02-10T04:14:04.194Z,18.80
2019-02-10T04:16:33.597Z,11.37
2019-02-10T04:19:03.020Z,18.37
2019-02-10T04:21:32.387Z,15.53
2019-02-10T04:24:03.312Z,13.43
2019-02-10T04:26:32.619Z,11.30
2019-02-10T04:29:02.426Z,17.87
2019-02-10T04:31:31.731Z,18.37
2019-02-10T04:34:01.049Z,9.40
2019-02-10T04:36:30.497Z,7.93
2019-02-10T04:38:59.840Z,7.93
2019-02-10T04:41:29.216Z,13.10
2019-02-10T04:43:58.570Z,15.07
2019-02-10T04:46:27.996Z,8.70
2019-02-10T04:48:57.431Z,13.57
2019-02-10T04:51:26.866Z,10.53
2019-02-10T04:53:56.194Z,9.90
2019-02-10T04:56:25.641Z,14.17
2019-02-10T04:58:55.043Z,11.63
2019-02-10T05:01:24.464Z,10.07
2019-02-10T05:03:53.863Z,19.40
2019-02-10T05:06:23.222Z,9.37
2019-02-10T05:08:52.553Z,10.00
2019-02-10T05:11:22.032Z,24.07
2019-02-10T05:13:51.442Z,12.87
2019-02-10T05:16:20.937Z,17.30
2019-02-10T05:18:50.360Z,9.03
2019-02-10T05:21:19.808Z,12.27
2019-02-10T05:23:49.198Z,8.30
2019-02-10T05:26:18.590Z,10.70
2019-02-10T05:28:48.049Z,19.77
2019-02-10T05:31:17.443Z,13.57
2019-02-10T05:33:46.892Z,8.73
2019-02-10T05:36:16.307Z,12.97
2019-02-10T05:38:45.726Z,5.70
2019-02-10T05:41:15.096Z,10.20
2019-02-10T05:43:44.480Z,13.90
2019-02-10T05:46:13.866Z,8.90
2019-02-10T05:48:43.204Z,11.70
2019-02-10T05:51:12.658Z,13.20
2019-02-10T05:53:42.011Z,15.63
2019-02-10T05:56:11.445Z,12.27
2019-02-10T05:58:40.870Z,9.50
2019-02-10T06:01:46.176Z,9.33
2019-02-10T06:04:15.592Z,14.80
2019-02-10T06:06:44.971Z,9.20
2019-02-10T06:09:14.361Z,11.50
2019-02-10T06:11:43.738Z,6.53
2019-02-10T06:14:13.061Z,10.77
2019-02-10T06:16:42.416Z,7.30
2019-02-10T06:19:18.654Z,10.27
2019-02-10T06:21:48.230Z,9.90
2019-02-10T06:24:17.960Z,8.40
2019-02-10T06:26:47.603Z,5.23
2019-02-10T06:29:17.225Z,9.67
2019-02-10T06:31:46.764Z,4.33
2019-02-10T06:34:16.236Z,11.27
2019-02-10T06:36:45.755Z,6.27
2019-02-10T06:39:15.218Z,5.13
2019-02-10T06:41:44.710Z,8.03
2019-02-10T06:44:14.124Z,5.57
2019-02-10T06:46:43.495Z,10.77
2019-02-10T06:49:12.892Z,5.53
2019-02-10T06:51:42.362Z,8.13
2019-02-10T06:54:11.708Z,11.40
2019-02-10T06:56:41.094Z,15.07
2019-02-10T06:59:20.666Z,10.03
2019-02-10T07:01:54.876Z,17.60
2019-02-10T07:04:29.462Z,19.70
2019-02-10T07:06:58.850Z,9.80
2019-02-10T07:09:28.252Z,20.47
2019-02-10T07:11:57.612Z,5.30
2019-02-10T07:14:32.434Z,4.73
2019-02-10T07:17:49.466Z,5.90
2019-02-10T07:20:42.974Z,5.43
2019-02-10T07:23:58.178Z,17.83
2019-02-10T07:27:00.754Z,6.93
2019-02-10T07:30:04.977Z,9.57
2019-02-10T07:32:41.429Z,8.13
2019-02-10T07:35:24.244Z,9.87
2019-02-10T07:38:25.958Z,12.50
2019-02-10T07:41:31.108Z,8.83
2019-02-10T07:44:43.090Z,8.03
2019-02-10T07:47:51.418Z,7.33
2019-02-10T07:51:00.602Z,4.67
2019-02-10T07:53:53.054Z,6.90
2019-02-10T07:57:14.110Z,3.30
2019-02-10T07:59:59.126Z,4.43
2019-02-10T08:03:21.790Z,11.20
2019-02-10T08:06:21.722Z,8.53
2019-02-10T08:09:34.009Z,9.00
2019-02-10T08:12:17.582Z,5.00
2019-02-10T08:15:12.198Z,7.07
2019-02-10T08:18:13.306Z,12.63
2019-02-10T08:21:20.441Z,6.33
2019-02-10T08:24:30.702Z,5.67
2019-02-10T08:27:42.467Z,15.00
2019-02-10T08:31:03.023Z,8.80
2019-02-10T08:34:03.095Z,8.50
2019-02-10T08:37:06.714Z,7.17
2019-02-10T08:40:20.646Z,4.20
2019-02-10T08:43:26.438Z,20.70
2019-02-10T08:46:39.946Z,5.77
2019-02-10T08:49:19.091Z,6.93
2019-02-10T08:52:11.971Z,10.00
2019-02-10T08:54:41.294Z,11.73
2019-02-10T08:57:10.698Z,19.67
2019-02-10T08:59:40.084Z,6.37
2019-02-10T09:02:09.485Z,10.27
2019-02-10T09:04:38.856Z,14.63
2019-02-10T09:07:08.282Z,16.30
2019-02-10T09:09:37.747Z,5.33
2019-02-10T09:12:07.066Z,14.80
2019-02-10T09:14:36.434Z,11.33
2019-02-10T09:17:05.774Z,7.00
2019-02-10T09:19:35.658Z,5.80
2019-02-10T09:22:05.042Z,11.10
2019-02-10T09:24:34.491Z,16.33
2019-02-10T09:27:03.851Z,10.47
2019-02-10T09:29:33.195Z,25.77
2019-02-10T09:32:02.538Z,18.57
2019-02-10T09:34:31.930Z,28.50
2019-02-10T09:37:01.326Z,20.23
2019-02-10T09:39:30.739Z,12.27
2019-02-10T09:42:00.139Z,17.23
2019-02-10T09:44:30.180Z,7.10
2019-02-10T09:46:59.908Z,7.43
2019-02-10T09:49:29.688Z,17.43
2019-02-10T09:51:59.063Z,24.47
2019-02-10T09:54:28.414Z,13.93
2019-02-10T09:56:57.822Z,11.30
2019-02-10T09:59:27.794Z,8.07
2019-02-10T10:01:57.126Z,14.23
2019-02-10T10:04:26.575Z,11.10
2019-02-10T10:06:55.967Z,5.60
2019-02-10T10:09:25.343Z,9.07
2019-02-10T10:11:54.743Z,9.53
2019-02-10T10:14:30.653Z,14.53
2019-02-10T10:16:55.132Z,7.83
2019-02-10T10:19:24.563Z,16.57
2019-02-10T10:21:54.222Z,9.40
2019-02-10T10:24:23.685Z,10.87
2019-02-10T10:26:53.220Z,22.10
2019-02-10T10:29:22.998Z,14.70
2019-02-10T10:31:52.710Z,10.73
2019-02-10T10:34:22.441Z,10.83
2019-02-10T10:36:51.883Z,11.87
2019-02-10T10:39:27.245Z,13.00
2019-02-10T10:41:52.547Z,11.27
2019-02-10T10:44:22.060Z,14.33
2019-02-10T10:46:51.535Z,20.77
2019-02-10T10:49:21.125Z,21.40
2019-02-10T10:51:50.597Z,12.03
2019-02-10T10:54:20.192Z,14.90
2019-02-10T10:56:49.724Z,13.17
2019-02-10T10:59:19.444Z,11.97
2019-02-10T11:01:48.941Z,14.43
2019-02-10T11:04:18.461Z,15.53
2019-02-10T11:06:48.084Z,9.07
2019-02-10T11:09:17.519Z,16.43
2019-02-10T11:11:47.206Z,19.27
2019-02-10T11:14:16.661Z,13.90
2019-02-10T11:16:46.123Z,13.93
2019-02-10T11:19:15.984Z,18.20
2019-02-10T11:21:45.519Z,18.13
2019-02-10T11:24:15.097Z,11.07
2019-02-10T11:26:44.646Z,18.57
2019-02-10T11:29:14.285Z,13.63
2019-02-10T11:31:43.803Z,16.50
2019-02-10T11:34:13.141Z,24.30
2019-02-10T11:36:42.693Z,20.90
2019-02-10T11:39:12.114Z,14.87
2019-02-10T11:41:41.620Z,24.27
2019-02-10T11:44:11.106Z,13.90
2019-02-10T11:46:40.685Z,19.73
2019-02-10T11:49:10.181Z,26.30
2019-02-10T11:51:41.228Z,18.30
2019-02-10T11:54:12.735Z,27.83
2019-02-10T11:56:41.891Z,23.10
2019-02-10T11:59:14.085Z,10.00
2019-02-10T12:01:43.554Z,17.03
2019-02-10T12:04:14.139Z,18.43
2019-02-10T12:06:43.581Z,18.80
2019-02-10T12:09:13.051Z,24.33
2019-02-10T12:11:42.523Z,17.17
2019-02-10T12:14:12.551Z,15.00
2019-02-10T12:16:41.973Z,19.43
2019-02-10T12:19:11.300Z,10.53
2019-02-10T12:21:41.216Z,16.00
2019-02-10T12:24:10.593Z,20.33
2019-02-10T12:26:39.990Z,29.27
2019-02-10T12:29:09.369Z,21.57
2019-02-10T12:31:40.079Z,18.43
2019-02-10T12:34:09.453Z,21.97
2019-02-10T12:36:39.569Z,14.47
2019-02-10T12:39:09.333Z,16.80
2019-02-10T12:41:38.705Z,19.97
2019-02-10T12:44:08.269Z,16.27
2019-02-10T12:46:37.945Z,18.03
2019-02-10T12:49:07.745Z,15.73
2019-02-10T12:51:37.215Z,17.23
2019-02-10T12:54:06.649Z,23.40
2019-02-10T12:56:36.029Z,15.77
2019-02-10T12:59:05.563Z,19.00
2019-02-10T13:01:34.965Z,17.97
2019-02-10T13:04:04.375Z,20.60
2019-02-10T13:06:33.766Z,17.27
2019-02-10T13:09:03.105Z,15.83
2019-02-10T13:11:32.569Z,11.30
2019-02-10T13:14:02.017Z,12.40
2019-02-10T13:16:31.407Z,23.27
2019-02-10T13:19:00.839Z,22.20
2019-02-10T13:21:30.271Z,32.20
2019-02-10T13:23:59.831Z,30.83
2019-02-10T13:26:29.449Z,29.10
2019-02-10T13:28:58.823Z,53.30
2019-02-10T13:31:28.227Z,45.63
2019-02-10T13:33:57.672Z,33.40
2019-02-10T13:36:27.061Z,11.17
2019-02-10T13:38:56.513Z,11.47
2019-02-10T13:41:34.916Z,14.47
2019-02-10T13:44:05.033Z,10.83
2019-02-10T13:46:34.399Z,48.87
2019-02-10T13:49:03.733Z,84.60
2019-02-10T13:51:33.106Z,27.33
2019-02-10T13:54:02.586Z,19.37
2019-02-10T13:56:31.983Z,13.83
2019-02-10T13:59:01.437Z,11.07
2019-02-10T14:01:30.977Z,12.00
2019-02-10T14:04:00.404Z,10.03
2019-02-10T14:06:29.777Z,13.30
2019-02-10T14:08:59.403Z,9.93
2019-02-10T14:11:28.977Z,15.67
2019-02-10T14:13:58.333Z,9.80
2019-02-10T14:16:28.061Z,9.33
2019-02-10T14:18:57.510Z,9.90
2019-02-10T14:21:27.120Z,9.97
2019-02-10T14:23:56.908Z,14.47
2019-02-10T14:26:26.508Z,10.97
2019-02-10T14:28:56.059Z,18.03
2019-02-10T14:31:25.599Z,16.47
2019-02-10T14:33:55.053Z,15.33
2019-02-10T14:36:24.549Z,13.67
2019-02-10T14:38:54.087Z,14.80
2019-02-10T14:41:23.561Z,14.27
2019-02-10T14:43:52.957Z,18.23
2019-02-10T14:46:22.476Z,18.97
2019-02-10T14:48:52.003Z,23.87
2019-02-10T14:51:21.384Z,20.17
2019-02-10T14:53:51.053Z,16.77
2019-02-10T14:56:20.603Z,17.70
2019-02-10T14:58:50.252Z,17.00
2019-02-10T15:01:19.744Z,18.50
2019-02-10T15:03:49.223Z,13.87
2019-02-10T15:06:18.651Z,15.40
2019-02-10T15:08:48.226Z,18.97
2019-02-10T15:11:17.552Z,16.67
2019-02-10T15:13:47.003Z,16.17
2019-02-10T15:16:16.415Z,16.70
2019-02-10T15:18:45.849Z,19.67
2019-02-10T15:21:15.177Z,16.63
2019-02-10T15:23:45.614Z,18.33
2019-02-10T15:26:15.205Z,13.33
2019-02-10T15:28:44.683Z,20.03
2019-02-10T15:31:14.209Z,14.60
2019-02-10T15:33:45.060Z,15.67
2019-02-10T15:36:14.636Z,15.13
2019-02-10T15:38:44.067Z,19.77
2019-02-10T15:41:13.585Z,16.90
2019-02-10T15:43:43.270Z,15.93
2019-02-10T15:46:13.072Z,20.70
2019-02-10T15:48:42.497Z,11.77
2019-02-10T15:51:12.017Z,18.07
2019-02-10T15:53:41.543Z,10.93
2019-02-10T15:56:11.078Z,12.43
2019-02-10T15:58:40.613Z,20.40
2019-02-10T16:01:10.271Z,13.77
2019-02-10T16:03:39.663Z,14.10
2019-02-10T16:06:09.050Z,16.03
2019-02-10T16:08:38.427Z,22.83
2019-02-10T16:11:07.724Z,18.53
2019-02-10T16:13:37.087Z,14.70
2019-02-10T16:16:06.478Z,16.53
2019-02-10T16:18:35.837Z,15.00
2019-02-10T16:21:05.236Z,20.03
2019-02-10T16:23:34.702Z,20.50
2019-02-10T16:26:04.261Z,13.67
2019-02-10T16:28:33.919Z,12.30
2019-02-10T16:31:03.289Z,11.80
2019-02-10T16:33:32.664Z,21.70
2019-02-10T16:36:02.135Z,13.93
2019-02-10T16:38:31.623Z,21.03
2019-02-10T16:41:06.259Z,22.30
2019-02-10T16:43:32.232Z,24.17
2019-02-10T16:46:01.784Z,16.53
2019-02-10T16:48:31.234Z,11.40
2019-02-10T16:51:00.630Z,15.77
2019-02-10T16:53:30.183Z,14.30
2019-02-10T16:55:59.750Z,19.60
2019-02-10T16:58:29.182Z,24.27
2019-02-10T17:00:58.847Z,11.93
2019-02-10T17:03:28.200Z,18.93
2019-02-10T17:05:57.555Z,20.83
2019-02-10T17:08:27.079Z,31.93
2019-02-10T17:10:56.510Z,17.20
2019-02-10T17:13:26.002Z,32.57
2019-02-10T17:15:55.529Z,20.87
2019-02-10T17:18:24.890Z,42.47
2019-02-10T17:20:54.279Z,29.50
2019-02-10T17:23:23.859Z,12.07
2019-02-10T17:25:53.411Z,11.90
2019-02-10T17:28:22.882Z,21.50
2019-02-10T17:30:52.277Z,19.87
2019-02-10T17:33:21.804Z,17.17
2019-02-10T17:35:51.251Z,18.93
2019-02-10T17:41:03.068Z,14.60
2019-02-10T17:43:32.566Z,10.00
2019-02-10T17:46:02.039Z,17.20
2019-02-10T17:48:31.429Z,12.63
2019-02-10T17:51:00.814Z,18.07
2019-02-10T17:53:30.417Z,17.77
2019-02-10T17:56:00.050Z,19.03
2019-02-10T17:58:29.579Z,15.13
2019-02-10T18:00:59.063Z,17.23
2019-02-10T18:03:28.553Z,12.30
2019-02-10T18:05:58.045Z,18.47
2019-02-10T18:08:27.433Z,9.60
2019-02-10T18:10:56.829Z,19.70
2019-02-10T18:13:28.173Z,16.17
2019-02-10T18:16:15.169Z,11.53
2019-02-10T18:19:02.986Z,11.93
2019-02-10T18:21:54.469Z,13.30
2019-02-10T18:24:41.461Z,15.23
2019-02-10T18:27:32.814Z,13.03
2019-02-10T18:30:33.290Z,10.80
2019-02-10T18:33:24.619Z,12.17
2019-02-10T18:36:09.863Z,16.93
2019-02-10T18:39:04.173Z,14.30
2019-02-10T18:41:51.636Z,17.13
2019-02-10T18:44:49.253Z,16.43
2019-02-10T18:47:46.595Z,18.13
2019-02-10T18:50:38.970Z,8.60
2019-02-10T18:53:20.741Z,12.33
2019-02-10T18:56:18.414Z,12.27
2019-02-10T18:59:00.042Z,12.50
2019-02-10T19:01:48.457Z,11.87
2019-02-10T19:04:28.021Z,13.93
2019-02-10T19:07:25.283Z,13.93
2019-02-10T19:10:16.650Z,11.33
2019-02-10T19:13:16.886Z,19.43
2019-02-10T19:16:20.434Z,14.47
2019-02-10T19:19:11.850Z,8.27
2019-02-10T19:21:48.405Z,14.60
2019-02-10T19:24:35.692Z,12.03
2019-02-10T19:27:12.305Z,11.93
2019-02-10T19:30:03.814Z,8.23
2019-02-10T19:32:58.133Z,19.53
2019-02-10T19:35:55.817Z,8.67
2019-02-10T19:38:47.187Z,8.17
2019-02-10T19:41:27.470Z,17.03
2019-02-10T19:44:18.878Z,8.30
2019-02-10T19:47:25.730Z,12.70
2019-02-10T19:50:17.054Z,10.80
2019-02-10T19:52:57.991Z,14.10
2019-02-10T19:55:55.566Z,19.10
2019-02-10T19:58:52.863Z,8.77
2019-02-10T20:01:41.350Z,9.47
2019-02-10T20:04:38.764Z,9.03
2019-02-10T20:07:26.077Z,7.27
2019-02-10T20:10:04.777Z,10.67
2019-02-10T20:12:45.997Z,16.33
2019-02-10T20:15:34.517Z,17.60
2019-02-10T20:18:21.774Z,18.83
2019-02-10T20:21:07.109Z,14.50
2019-02-10T20:23:46.475Z,10.70
2019-02-10T20:26:33.786Z,11.50
2019-02-10T20:29:15.623Z,7.80
2019-02-10T20:32:04.121Z,13.13
2019-02-10T20:34:55.619Z,15.53
2019-02-10T20:37:49.822Z,14.27
2019-02-10T20:40:24.838Z,24.13
2019-02-10T20:43:12.891Z,13.93
2019-02-10T20:45:54.187Z,9.20
2019-02-10T20:48:37.418Z,8.33
2019-02-10T20:51:23.677Z,7.33
2019-02-10T20:54:08.979Z,7.73
2019-02-10T20:57:00.299Z,12.17
2019-02-10T20:59:54.605Z,11.37
2019-02-10T21:02:31.038Z,14.57
2019-02-10T21:05:07.447Z,9.63
2019-02-10T21:07:56.049Z,14.33
2019-02-10T21:10:47.374Z,9.10
2019-02-10T21:13:36.675Z,16.70
2019-02-10T21:16:25.038Z,13.60
2019-02-10T21:19:19.749Z,12.50
2019-02-10T21:22:11.018Z,11.17
2019-02-10T21:24:53.902Z,15.10
2019-02-10T21:27:42.283Z,10.97
2019-02-10T21:30:33.951Z,15.50
2019-02-10T21:33:22.425Z,17.93
2019-02-10T21:36:03.580Z,11.93
2019-02-10T21:38:51.926Z,12.03
2019-02-10T21:41:40.283Z,13.97
2019-02-10T21:44:27.421Z,8.40
2019-02-10T21:47:15.677Z,10.30
2019-02-10T21:49:45.124Z,14.73
2019-02-10T21:52:14.493Z,11.57
2019-02-10T21:54:43.864Z,9.80
2019-02-10T21:57:13.177Z,12.20
2019-02-10T21:59:42.557Z,12.17
2019-02-10T22:02:11.934Z,10.93
2019-02-10T22:04:41.288Z,8.37
2019-02-10T22:07:10.676Z,4.43
2019-02-10T22:09:40.022Z,4.63
2019-02-10T22:12:09.434Z,1.33
2019-02-10T22:14:38.791Z,3.40
2019-02-10T22:17:08.112Z,1.70
2019-02-10T22:19:39.382Z,1.53
2019-02-10T22:22:08.901Z,2.57
2019-02-10T22:24:41.216Z,1.40
2019-02-10T22:27:10.646Z,4.27
2019-02-10T22:29:40.072Z,1.53
2019-02-10T22:32:09.524Z,0.93
2019-02-10T22:34:38.962Z,1.97
2019-02-10T22:37:08.434Z,4.60
2019-02-10T22:39:37.769Z,0.80
2019-02-10T22:42:07.195Z,1.23
2019-02-10T22:44:36.538Z,0.50
2019-02-10T22:47:05.974Z,1.10
2019-02-10T22:49:35.313Z,1.03
2019-02-10T22:52:04.756Z,2.53
2019-02-10T22:54:34.078Z,0.90
2019-02-10T22:57:03.458Z,1.10
2019-02-10T22:59:32.773Z,1.10
2019-02-10T23:02:03.010Z,4.47
2019-02-10T23:04:32.354Z,1.33
2019-02-10T23:07:02.814Z,0.60
2019-02-10T23:09:32.121Z,0.80
2019-02-10T23:12:02.550Z,1.00
2019-02-10T23:14:31.862Z,0.63
2019-02-10T23:17:04.978Z,0.67
2019-02-10T23:19:34.298Z,0.70
2019-02-10T23:22:03.874Z,0.63
2019-02-10T23:24:33.170Z,0.50
2019-02-10T23:27:03.598Z,0.60
2019-02-10T23:29:33.062Z,0.50
2019-02-10T23:32:02.988Z,0.87
2019-02-10T23:34:32.308Z,0.80
2019-02-10T23:37:02.906Z,0.43
2019-02-10T23:39:32.306Z,0.70
2019-02-10T23:42:02.547Z,0.60
2019-02-10T23:44:32.102Z,0.40
2019-02-10T23:47:02.790Z,0.40
2019-02-10T23:49:32.114Z,0.30
2019-02-10T23:52:03.050Z,0.40
2019-02-10T23:54:32.440Z,0.40
2019-02-10T23:57:02.908Z,1.93
2019-02-10T23:59:32.246Z,0.40
